sensor_id;sensor_type;location;lat;lon;timestamp;P1;durP1;ratioP1;P2;durP2;ratioP2
75246;SDS011;63844;50.042;19.224;2023-12-20T00:01:25;5.90;;;2.90;;
75246;SDS011;63844;50.042;19.224;2023-12-20T00:03:01;8.40;;;2.40;;
75246;SDS011;63844;50.042;19.224;2023-12-20T00:04:38;4.80;;;2.30;;
75246;SDS011;63844;50.042;19.224;2023-12-20T00:06:14;5.20;;;2.40;;
75246;SDS011;63844;50.042;19.224;2023-12-20T00:07:51;4.90;;;1.60;;
75246;SDS011;63844;50.042;19.224;2023-12-20T00:09:27;6.50;;;2.30;;
75246;SDS011;63844;50.042;19.224;2023-12-20T00:11:03;5.60;;;2.40;;
75246;SDS011;63844;50.042;19.224;2023-12-20T00:12:40;4.00;;;2.10;;
75246;SDS011;63844;50.042;19.224;2023-12-20T00:14:17;3.60;;;1.70;;
75246;SDS011;63844;50.042;19.224;2023-12-20T00:15:53;6.30;;;1.90;;
75246;SDS011;63844;50.042;19.224;2023-12-20T00:17:30;5.90;;;1.80;;
75246;SDS011;63844;50.042;19.224;2023-12-20T00:19:06;5.80;;;2.50;;
75246;SDS011;63844;50.042;19.224;2023-12-20T00:20:43;5.90;;;2.30;;
75246;SDS011;63844;50.042;19.224;2023-12-20T00:22:20;5.00;;;2.00;;
75246;SDS011;63844;50.042;19.224;2023-12-20T00:23:56;5.50;;;2.20;;
75246;SDS011;63844;50.042;19.224;2023-12-20T00:25:33;4.80;;;1.90;;
75246;SDS011;63844;50.042;19.224;2023-12-20T00:27:11;5.90;;;2.60;;
75246;SDS011;63844;50.042;19.224;2023-12-20T00:28:47;4.80;;;2.50;;
75246;SDS011;63844;50.042;19.224;2023-12-20T00:30:23;7.00;;;2.10;;
75246;SDS011;63844;50.042;19.224;2023-12-20T00:32:00;5.50;;;2.20;;
75246;SDS011;63844;50.042;19.224;2023-12-20T00:33:36;5.80;;;2.00;;
75246;SDS011;63844;50.042;19.224;2023-12-20T00:35:13;4.90;;;2.10;;
75246;SDS011;63844;50.042;19.224;2023-12-20T00:36:50;4.10;;;1.70;;
75246;SDS011;63844;50.042;19.224;2023-12-20T00:38:26;3.60;;;1.80;;
75246;SDS011;63844;50.042;19.224;2023-12-20T00:40:03;4.50;;;2.30;;
75246;SDS011;63844;50.042;19.224;2023-12-20T00:41:40;3.20;;;1.90;;
75246;SDS011;63844;50.042;19.224;2023-12-20T00:43:16;4.50;;;1.90;;
75246;SDS011;63844;50.042;19.224;2023-12-20T00:44:52;2.50;;;1.40;;
75246;SDS011;63844;50.042;19.224;2023-12-20T00:46:29;3.60;;;1.80;;
75246;SDS011;63844;50.042;19.224;2023-12-20T00:48:05;4.30;;;2.10;;
75246;SDS011;63844;50.042;19.224;2023-12-20T00:49:42;4.90;;;2.10;;
75246;SDS011;63844;50.042;19.224;2023-12-20T00:51:19;3.10;;;1.60;;
75246;SDS011;63844;50.042;19.224;2023-12-20T00:52:55;3.60;;;1.60;;
75246;SDS011;63844;50.042;19.224;2023-12-20T00:54:32;5.30;;;2.30;;
75246;SDS011;63844;50.042;19.224;2023-12-20T00:56:08;4.30;;;2.20;;
75246;SDS011;63844;50.042;19.224;2023-12-20T00:57:45;3.90;;;1.90;;
75246;SDS011;63844;50.042;19.224;2023-12-20T00:59:21;3.60;;;1.70;;
75246;SDS011;63844;50.042;19.224;2023-12-20T01:00:58;5.70;;;2.70;;
75246;SDS011;63844;50.042;19.224;2023-12-20T01:02:34;4.40;;;2.00;;
75246;SDS011;63844;50.042;19.224;2023-12-20T01:04:11;5.30;;;2.30;;
75246;SDS011;63844;50.042;19.224;2023-12-20T01:05:47;4.60;;;2.30;;
75246;SDS011;63844;50.042;19.224;2023-12-20T01:07:24;5.60;;;2.40;;
75246;SDS011;63844;50.042;19.224;2023-12-20T01:09:00;6.80;;;2.30;;
75246;SDS011;63844;50.042;19.224;2023-12-20T01:10:36;4.00;;;2.10;;
75246;SDS011;63844;50.042;19.224;2023-12-20T01:12:13;3.90;;;2.00;;
75246;SDS011;63844;50.042;19.224;2023-12-20T01:13:49;3.40;;;1.50;;
75246;SDS011;63844;50.042;19.224;2023-12-20T01:15:26;7.80;;;2.20;;
75246;SDS011;63844;50.042;19.224;2023-12-20T01:17:02;6.20;;;2.80;;
75246;SDS011;63844;50.042;19.224;2023-12-20T01:18:39;5.00;;;2.40;;
75246;SDS011;63844;50.042;19.224;2023-12-20T01:20:15;3.70;;;1.90;;
75246;SDS011;63844;50.042;19.224;2023-12-20T01:21:51;4.70;;;2.30;;
75246;SDS011;63844;50.042;19.224;2023-12-20T01:23:28;4.70;;;2.30;;
75246;SDS011;63844;50.042;19.224;2023-12-20T01:25:04;4.90;;;2.10;;
75246;SDS011;63844;50.042;19.224;2023-12-20T01:26:41;4.10;;;2.00;;
75246;SDS011;63844;50.042;19.224;2023-12-20T01:28:17;5.20;;;2.20;;
75246;SDS011;63844;50.042;19.224;2023-12-20T01:29:54;7.10;;;2.30;;
75246;SDS011;63844;50.042;19.224;2023-12-20T01:31:30;4.20;;;2.10;;
75246;SDS011;63844;50.042;19.224;2023-12-20T01:33:07;6.20;;;2.70;;
75246;SDS011;63844;50.042;19.224;2023-12-20T01:34:43;4.70;;;2.40;;
75246;SDS011;63844;50.042;19.224;2023-12-20T01:36:19;4.30;;;2.50;;
75246;SDS011;63844;50.042;19.224;2023-12-20T01:37:56;4.30;;;2.00;;
75246;SDS011;63844;50.042;19.224;2023-12-20T01:39:32;3.50;;;1.90;;
75246;SDS011;63844;50.042;19.224;2023-12-20T01:41:09;4.40;;;2.50;;
75246;SDS011;63844;50.042;19.224;2023-12-20T01:42:45;4.70;;;2.50;;
75246;SDS011;63844;50.042;19.224;2023-12-20T01:44:22;6.00;;;2.30;;
75246;SDS011;63844;50.042;19.224;2023-12-20T01:45:58;4.80;;;2.20;;
75246;SDS011;63844;50.042;19.224;2023-12-20T01:47:36;3.60;;;2.30;;
75246;SDS011;63844;50.042;19.224;2023-12-20T01:49:12;6.00;;;2.70;;
75246;SDS011;63844;50.042;19.224;2023-12-20T01:50:49;6.10;;;2.80;;
75246;SDS011;63844;50.042;19.224;2023-12-20T01:52:25;5.00;;;2.60;;
75246;SDS011;63844;50.042;19.224;2023-12-20T01:54:03;5.60;;;2.80;;
75246;SDS011;63844;50.042;19.224;2023-12-20T01:55:41;4.40;;;2.40;;
75246;SDS011;63844;50.042;19.224;2023-12-20T01:57:18;4.70;;;2.30;;
75246;SDS011;63844;50.042;19.224;2023-12-20T01:58:55;5.10;;;2.50;;
75246;SDS011;63844;50.042;19.224;2023-12-20T02:00:32;5.10;;;2.50;;
75246;SDS011;63844;50.042;19.224;2023-12-20T02:02:09;4.60;;;2.70;;
75246;SDS011;63844;50.042;19.224;2023-12-20T02:03:48;5.40;;;2.30;;
75246;SDS011;63844;50.042;19.224;2023-12-20T02:05:26;4.10;;;2.00;;
75246;SDS011;63844;50.042;19.224;2023-12-20T02:07:04;4.80;;;2.40;;
75246;SDS011;63844;50.042;19.224;2023-12-20T02:08:40;3.40;;;2.30;;
75246;SDS011;63844;50.042;19.224;2023-12-20T02:10:17;4.90;;;2.80;;
75246;SDS011;63844;50.042;19.224;2023-12-20T02:11:53;4.80;;;2.00;;
75246;SDS011;63844;50.042;19.224;2023-12-20T02:13:30;4.60;;;2.30;;
75246;SDS011;63844;50.042;19.224;2023-12-20T02:15:07;5.10;;;3.00;;
75246;SDS011;63844;50.042;19.224;2023-12-20T02:16:43;4.00;;;2.00;;
75246;SDS011;63844;50.042;19.224;2023-12-20T02:18:20;5.40;;;2.60;;
75246;SDS011;63844;50.042;19.224;2023-12-20T02:19:57;4.30;;;2.50;;
75246;SDS011;63844;50.042;19.224;2023-12-20T02:21:33;4.30;;;2.10;;
75246;SDS011;63844;50.042;19.224;2023-12-20T02:23:13;5.90;;;2.40;;
75246;SDS011;63844;50.042;19.224;2023-12-20T02:24:49;4.80;;;2.30;;
75246;SDS011;63844;50.042;19.224;2023-12-20T02:26:26;5.00;;;2.40;;
75246;SDS011;63844;50.042;19.224;2023-12-20T02:28:03;4.60;;;2.30;;
75246;SDS011;63844;50.042;19.224;2023-12-20T02:29:41;5.00;;;2.60;;
75246;SDS011;63844;50.042;19.224;2023-12-20T02:31:20;4.20;;;2.50;;
75246;SDS011;63844;50.042;19.224;2023-12-20T02:32:58;5.60;;;2.50;;
75246;SDS011;63844;50.042;19.224;2023-12-20T02:34:36;4.70;;;2.40;;
75246;SDS011;63844;50.042;19.224;2023-12-20T02:36:12;3.90;;;2.40;;
75246;SDS011;63844;50.042;19.224;2023-12-20T02:37:48;5.20;;;2.40;;
75246;SDS011;63844;50.042;19.224;2023-12-20T02:39:25;4.00;;;2.40;;
75246;SDS011;63844;50.042;19.224;2023-12-20T02:41:01;4.40;;;2.40;;
75246;SDS011;63844;50.042;19.224;2023-12-20T02:42:37;4.40;;;2.60;;
75246;SDS011;63844;50.042;19.224;2023-12-20T02:44:14;6.40;;;3.00;;
75246;SDS011;63844;50.042;19.224;2023-12-20T02:45:50;4.20;;;2.60;;
75246;SDS011;63844;50.042;19.224;2023-12-20T02:47:27;5.00;;;2.90;;
75246;SDS011;63844;50.042;19.224;2023-12-20T02:49:03;3.90;;;2.40;;
75246;SDS011;63844;50.042;19.224;2023-12-20T02:50:39;4.00;;;2.40;;
75246;SDS011;63844;50.042;19.224;2023-12-20T02:52:16;4.60;;;2.50;;
75246;SDS011;63844;50.042;19.224;2023-12-20T02:53:52;4.00;;;2.70;;
75246;SDS011;63844;50.042;19.224;2023-12-20T02:55:29;4.60;;;2.50;;
75246;SDS011;63844;50.042;19.224;2023-12-20T02:57:05;5.60;;;3.10;;
75246;SDS011;63844;50.042;19.224;2023-12-20T02:58:42;5.00;;;2.60;;
75246;SDS011;63844;50.042;19.224;2023-12-20T03:00:19;5.70;;;2.90;;
75246;SDS011;63844;50.042;19.224;2023-12-20T03:01:55;5.70;;;3.30;;
75246;SDS011;63844;50.042;19.224;2023-12-20T03:03:32;5.40;;;3.00;;
75246;SDS011;63844;50.042;19.224;2023-12-20T03:05:08;5.50;;;2.70;;
75246;SDS011;63844;50.042;19.224;2023-12-20T03:06:44;6.90;;;3.10;;
75246;SDS011;63844;50.042;19.224;2023-12-20T03:08:21;4.80;;;2.90;;
75246;SDS011;63844;50.042;19.224;2023-12-20T03:09:57;4.10;;;2.40;;
75246;SDS011;63844;50.042;19.224;2023-12-20T03:11:34;5.30;;;3.20;;
75246;SDS011;63844;50.042;19.224;2023-12-20T03:13:10;3.80;;;2.60;;
75246;SDS011;63844;50.042;19.224;2023-12-20T03:14:47;5.40;;;3.00;;
75246;SDS011;63844;50.042;19.224;2023-12-20T03:16:24;6.70;;;2.60;;
75246;SDS011;63844;50.042;19.224;2023-12-20T03:18:01;5.10;;;2.40;;
75246;SDS011;63844;50.042;19.224;2023-12-20T03:19:37;4.70;;;2.40;;
75246;SDS011;63844;50.042;19.224;2023-12-20T03:21:14;4.50;;;2.10;;
75246;SDS011;63844;50.042;19.224;2023-12-20T03:22:50;7.50;;;3.50;;
75246;SDS011;63844;50.042;19.224;2023-12-20T03:24:27;5.30;;;2.60;;
75246;SDS011;63844;50.042;19.224;2023-12-20T03:26:06;5.60;;;2.80;;
75246;SDS011;63844;50.042;19.224;2023-12-20T03:27:43;5.60;;;2.30;;
75246;SDS011;63844;50.042;19.224;2023-12-20T03:29:19;5.10;;;2.60;;
75246;SDS011;63844;50.042;19.224;2023-12-20T03:30:56;5.10;;;2.40;;
75246;SDS011;63844;50.042;19.224;2023-12-20T03:32:32;4.50;;;2.40;;
75246;SDS011;63844;50.042;19.224;2023-12-20T03:34:09;5.40;;;2.90;;
75246;SDS011;63844;50.042;19.224;2023-12-20T03:35:45;6.80;;;3.00;;
75246;SDS011;63844;50.042;19.224;2023-12-20T03:37:22;4.70;;;2.70;;
75246;SDS011;63844;50.042;19.224;2023-12-20T03:38:59;4.50;;;2.50;;
75246;SDS011;63844;50.042;19.224;2023-12-20T03:40:35;5.10;;;3.00;;
75246;SDS011;63844;50.042;19.224;2023-12-20T03:42:12;5.20;;;2.70;;
75246;SDS011;63844;50.042;19.224;2023-12-20T03:43:49;5.00;;;2.70;;
75246;SDS011;63844;50.042;19.224;2023-12-20T03:45:25;5.10;;;2.40;;
75246;SDS011;63844;50.042;19.224;2023-12-20T03:47:02;5.60;;;3.20;;
75246;SDS011;63844;50.042;19.224;2023-12-20T03:48:38;6.10;;;2.10;;
75246;SDS011;63844;50.042;19.224;2023-12-20T03:50:15;5.60;;;2.80;;
75246;SDS011;63844;50.042;19.224;2023-12-20T03:51:51;7.20;;;3.00;;
75246;SDS011;63844;50.042;19.224;2023-12-20T03:53:28;4.60;;;2.40;;
75246;SDS011;63844;50.042;19.224;2023-12-20T03:55:04;4.90;;;2.50;;
75246;SDS011;63844;50.042;19.224;2023-12-20T03:56:41;4.50;;;2.10;;
75246;SDS011;63844;50.042;19.224;2023-12-20T03:58:18;6.20;;;2.40;;
75246;SDS011;63844;50.042;19.224;2023-12-20T03:59:54;3.70;;;2.10;;
75246;SDS011;63844;50.042;19.224;2023-12-20T04:01:31;4.60;;;2.40;;
75246;SDS011;63844;50.042;19.224;2023-12-20T04:03:07;7.00;;;2.90;;
75246;SDS011;63844;50.042;19.224;2023-12-20T04:04:43;4.20;;;2.60;;
75246;SDS011;63844;50.042;19.224;2023-12-20T04:06:20;6.00;;;2.50;;
75246;SDS011;63844;50.042;19.224;2023-12-20T04:07:56;6.30;;;3.00;;
75246;SDS011;63844;50.042;19.224;2023-12-20T04:09:33;6.10;;;2.60;;
75246;SDS011;63844;50.042;19.224;2023-12-20T04:11:09;4.20;;;2.50;;
75246;SDS011;63844;50.042;19.224;2023-12-20T04:12:45;4.50;;;2.70;;
75246;SDS011;63844;50.042;19.224;2023-12-20T04:14:22;6.00;;;2.90;;
75246;SDS011;63844;50.042;19.224;2023-12-20T04:15:58;3.70;;;2.60;;
75246;SDS011;63844;50.042;19.224;2023-12-20T04:17:35;6.10;;;2.40;;
75246;SDS011;63844;50.042;19.224;2023-12-20T04:19:12;5.00;;;2.30;;
75246;SDS011;63844;50.042;19.224;2023-12-20T04:20:48;5.10;;;2.70;;
75246;SDS011;63844;50.042;19.224;2023-12-20T04:22:25;4.50;;;2.50;;
75246;SDS011;63844;50.042;19.224;2023-12-20T04:24:02;7.60;;;2.80;;
75246;SDS011;63844;50.042;19.224;2023-12-20T04:25:38;6.10;;;2.50;;
75246;SDS011;63844;50.042;19.224;2023-12-20T04:27:15;4.00;;;2.40;;
75246;SDS011;63844;50.042;19.224;2023-12-20T04:28:51;5.40;;;2.20;;
75246;SDS011;63844;50.042;19.224;2023-12-20T04:30:27;4.20;;;2.50;;
75246;SDS011;63844;50.042;19.224;2023-12-20T04:32:04;5.30;;;3.30;;
75246;SDS011;63844;50.042;19.224;2023-12-20T04:33:41;5.30;;;2.90;;
75246;SDS011;63844;50.042;19.224;2023-12-20T04:35:17;5.90;;;2.60;;
75246;SDS011;63844;50.042;19.224;2023-12-20T04:36:53;6.60;;;3.10;;
75246;SDS011;63844;50.042;19.224;2023-12-20T04:38:30;5.50;;;3.20;;
75246;SDS011;63844;50.042;19.224;2023-12-20T04:40:06;5.90;;;2.70;;
75246;SDS011;63844;50.042;19.224;2023-12-20T04:41:44;4.60;;;3.00;;
75246;SDS011;63844;50.042;19.224;2023-12-20T04:43:21;6.40;;;3.10;;
75246;SDS011;63844;50.042;19.224;2023-12-20T04:44:57;5.20;;;2.80;;
75246;SDS011;63844;50.042;19.224;2023-12-20T04:46:34;4.10;;;2.20;;
75246;SDS011;63844;50.042;19.224;2023-12-20T04:48:10;6.80;;;2.80;;
75246;SDS011;63844;50.042;19.224;2023-12-20T04:49:48;7.50;;;3.00;;
75246;SDS011;63844;50.042;19.224;2023-12-20T04:51:24;6.90;;;2.80;;
75246;SDS011;63844;50.042;19.224;2023-12-20T04:53:01;5.50;;;2.70;;
75246;SDS011;63844;50.042;19.224;2023-12-20T04:54:37;4.60;;;3.00;;
75246;SDS011;63844;50.042;19.224;2023-12-20T04:56:14;5.20;;;3.20;;
75246;SDS011;63844;50.042;19.224;2023-12-20T04:57:50;5.80;;;3.10;;
75246;SDS011;63844;50.042;19.224;2023-12-20T04:59:26;4.80;;;2.70;;
75246;SDS011;63844;50.042;19.224;2023-12-20T05:01:03;5.80;;;3.30;;
75246;SDS011;63844;50.042;19.224;2023-12-20T05:02:42;5.30;;;3.00;;
75246;SDS011;63844;50.042;19.224;2023-12-20T05:04:18;5.70;;;3.00;;
75246;SDS011;63844;50.042;19.224;2023-12-20T05:05:55;5.30;;;3.20;;
75246;SDS011;63844;50.042;19.224;2023-12-20T05:07:31;5.40;;;3.30;;
75246;SDS011;63844;50.042;19.224;2023-12-20T05:09:08;11.10;;;3.90;;
75246;SDS011;63844;50.042;19.224;2023-12-20T05:10:45;5.60;;;3.40;;
75246;SDS011;63844;50.042;19.224;2023-12-20T05:12:21;6.90;;;3.30;;
75246;SDS011;63844;50.042;19.224;2023-12-20T05:13:58;5.40;;;3.30;;
75246;SDS011;63844;50.042;19.224;2023-12-20T05:15:34;3.70;;;2.40;;
75246;SDS011;63844;50.042;19.224;2023-12-20T05:17:11;5.80;;;2.90;;
75246;SDS011;63844;50.042;19.224;2023-12-20T05:18:48;7.00;;;3.40;;
75246;SDS011;63844;50.042;19.224;2023-12-20T05:20:25;6.70;;;3.00;;
75246;SDS011;63844;50.042;19.224;2023-12-20T05:22:02;9.60;;;3.70;;
75246;SDS011;63844;50.042;19.224;2023-12-20T05:23:38;7.30;;;3.70;;
75246;SDS011;63844;50.042;19.224;2023-12-20T05:25:15;8.40;;;3.90;;
75246;SDS011;63844;50.042;19.224;2023-12-20T05:26:51;8.90;;;4.10;;
75246;SDS011;63844;50.042;19.224;2023-12-20T05:28:28;8.90;;;4.00;;
75246;SDS011;63844;50.042;19.224;2023-12-20T05:30:05;8.00;;;4.30;;
75246;SDS011;63844;50.042;19.224;2023-12-20T05:31:42;7.50;;;4.70;;
75246;SDS011;63844;50.042;19.224;2023-12-20T05:33:19;7.80;;;4.60;;
75246;SDS011;63844;50.042;19.224;2023-12-20T05:34:55;8.70;;;4.50;;
75246;SDS011;63844;50.042;19.224;2023-12-20T05:36:31;6.40;;;3.60;;
75246;SDS011;63844;50.042;19.224;2023-12-20T05:38:08;7.90;;;3.80;;
75246;SDS011;63844;50.042;19.224;2023-12-20T05:39:44;7.40;;;3.60;;
75246;SDS011;63844;50.042;19.224;2023-12-20T05:41:21;8.20;;;3.80;;
75246;SDS011;63844;50.042;19.224;2023-12-20T05:42:58;5.30;;;3.40;;
75246;SDS011;63844;50.042;19.224;2023-12-20T05:44:34;7.90;;;3.50;;
75246;SDS011;63844;50.042;19.224;2023-12-20T05:46:10;8.70;;;4.00;;
75246;SDS011;63844;50.042;19.224;2023-12-20T05:47:48;9.00;;;4.30;;
75246;SDS011;63844;50.042;19.224;2023-12-20T05:49:24;7.60;;;4.80;;
75246;SDS011;63844;50.042;19.224;2023-12-20T05:51:01;6.90;;;3.50;;
75246;SDS011;63844;50.042;19.224;2023-12-20T05:52:38;7.10;;;3.70;;
75246;SDS011;63844;50.042;19.224;2023-12-20T05:54:14;8.00;;;4.20;;
75246;SDS011;63844;50.042;19.224;2023-12-20T05:55:50;7.90;;;4.20;;
75246;SDS011;63844;50.042;19.224;2023-12-20T05:57:27;6.50;;;3.80;;
75246;SDS011;63844;50.042;19.224;2023-12-20T05:59:03;5.10;;;3.30;;
75246;SDS011;63844;50.042;19.224;2023-12-20T06:00:40;6.50;;;3.80;;
75246;SDS011;63844;50.042;19.224;2023-12-20T06:02:16;9.80;;;4.30;;
75246;SDS011;63844;50.042;19.224;2023-12-20T06:03:53;8.50;;;3.90;;
75246;SDS011;63844;50.042;19.224;2023-12-20T06:05:29;8.40;;;4.00;;
75246;SDS011;63844;50.042;19.224;2023-12-20T06:07:05;6.50;;;4.30;;
75246;SDS011;63844;50.042;19.224;2023-12-20T06:08:42;7.50;;;3.90;;
75246;SDS011;63844;50.042;19.224;2023-12-20T06:10:19;7.80;;;3.80;;
75246;SDS011;63844;50.042;19.224;2023-12-20T06:11:56;9.80;;;4.60;;
75246;SDS011;63844;50.042;19.224;2023-12-20T06:13:32;8.00;;;4.60;;
75246;SDS011;63844;50.042;19.224;2023-12-20T06:15:09;8.20;;;4.80;;
75246;SDS011;63844;50.042;19.224;2023-12-20T06:16:45;6.20;;;3.30;;
75246;SDS011;63844;50.042;19.224;2023-12-20T06:18:22;10.20;;;4.80;;
75246;SDS011;63844;50.042;19.224;2023-12-20T06:19:59;9.10;;;5.10;;
75246;SDS011;63844;50.042;19.224;2023-12-20T06:21:35;8.80;;;4.90;;
75246;SDS011;63844;50.042;19.224;2023-12-20T06:23:12;8.10;;;4.60;;
75246;SDS011;63844;50.042;19.224;2023-12-20T06:24:48;9.20;;;5.80;;
75246;SDS011;63844;50.042;19.224;2023-12-20T06:26:25;8.20;;;5.20;;
75246;SDS011;63844;50.042;19.224;2023-12-20T06:28:01;7.90;;;4.60;;
75246;SDS011;63844;50.042;19.224;2023-12-20T06:29:38;9.00;;;4.80;;
75246;SDS011;63844;50.042;19.224;2023-12-20T06:31:14;10.30;;;5.30;;
75246;SDS011;63844;50.042;19.224;2023-12-20T06:32:51;10.30;;;5.10;;
75246;SDS011;63844;50.042;19.224;2023-12-20T06:34:27;8.80;;;4.60;;
75246;SDS011;63844;50.042;19.224;2023-12-20T06:36:04;8.70;;;4.70;;
75246;SDS011;63844;50.042;19.224;2023-12-20T06:37:40;9.60;;;4.70;;
75246;SDS011;63844;50.042;19.224;2023-12-20T06:39:18;9.60;;;5.60;;
75246;SDS011;63844;50.042;19.224;2023-12-20T06:40:55;10.20;;;5.10;;
75246;SDS011;63844;50.042;19.224;2023-12-20T06:42:33;8.50;;;4.60;;
75246;SDS011;63844;50.042;19.224;2023-12-20T06:44:09;9.20;;;4.70;;
75246;SDS011;63844;50.042;19.224;2023-12-20T06:45:46;10.80;;;5.00;;
75246;SDS011;63844;50.042;19.224;2023-12-20T06:47:22;9.10;;;4.90;;
75246;SDS011;63844;50.042;19.224;2023-12-20T06:48:59;8.90;;;5.10;;
75246;SDS011;63844;50.042;19.224;2023-12-20T06:50:35;10.90;;;5.10;;
75246;SDS011;63844;50.042;19.224;2023-12-20T06:52:16;11.40;;;4.70;;
75246;SDS011;63844;50.042;19.224;2023-12-20T06:53:52;10.60;;;5.60;;
75246;SDS011;63844;50.042;19.224;2023-12-20T06:55:28;10.90;;;4.50;;
75246;SDS011;63844;50.042;19.224;2023-12-20T06:57:05;9.60;;;5.00;;
75246;SDS011;63844;50.042;19.224;2023-12-20T06:58:42;12.50;;;6.00;;
75246;SDS011;63844;50.042;19.224;2023-12-20T07:00:18;12.40;;;5.30;;
75246;SDS011;63844;50.042;19.224;2023-12-20T07:01:56;14.70;;;6.20;;
75246;SDS011;63844;50.042;19.224;2023-12-20T07:03:33;11.50;;;5.60;;
75246;SDS011;63844;50.042;19.224;2023-12-20T07:05:09;11.10;;;5.30;;
75246;SDS011;63844;50.042;19.224;2023-12-20T07:06:46;12.00;;;5.90;;
75246;SDS011;63844;50.042;19.224;2023-12-20T07:08:22;9.20;;;4.90;;
75246;SDS011;63844;50.042;19.224;2023-12-20T07:09:59;11.70;;;6.10;;
75246;SDS011;63844;50.042;19.224;2023-12-20T07:11:35;11.70;;;6.30;;
75246;SDS011;63844;50.042;19.224;2023-12-20T07:13:11;10.80;;;5.00;;
75246;SDS011;63844;50.042;19.224;2023-12-20T07:14:49;11.50;;;6.30;;
75246;SDS011;63844;50.042;19.224;2023-12-20T07:16:25;11.10;;;5.60;;
75246;SDS011;63844;50.042;19.224;2023-12-20T07:18:02;8.50;;;4.60;;
75246;SDS011;63844;50.042;19.224;2023-12-20T07:19:39;11.10;;;6.00;;
75246;SDS011;63844;50.042;19.224;2023-12-20T07:21:15;10.50;;;6.00;;
75246;SDS011;63844;50.042;19.224;2023-12-20T07:22:52;13.60;;;6.60;;
75246;SDS011;63844;50.042;19.224;2023-12-20T07:24:28;11.70;;;5.80;;
75246;SDS011;63844;50.042;19.224;2023-12-20T07:26:04;12.40;;;5.80;;
75246;SDS011;63844;50.042;19.224;2023-12-20T07:27:41;12.70;;;6.10;;
75246;SDS011;63844;50.042;19.224;2023-12-20T07:29:17;12.60;;;6.60;;
75246;SDS011;63844;50.042;19.224;2023-12-20T07:30:54;12.70;;;5.90;;
75246;SDS011;63844;50.042;19.224;2023-12-20T07:32:31;13.30;;;6.70;;
75246;SDS011;63844;50.042;19.224;2023-12-20T07:34:08;10.80;;;5.90;;
75246;SDS011;63844;50.042;19.224;2023-12-20T07:35:44;12.70;;;6.40;;
75246;SDS011;63844;50.042;19.224;2023-12-20T07:37:21;15.20;;;7.30;;
75246;SDS011;63844;50.042;19.224;2023-12-20T07:38:57;14.70;;;7.60;;
75246;SDS011;63844;50.042;19.224;2023-12-20T07:40:34;11.80;;;6.50;;
75246;SDS011;63844;50.042;19.224;2023-12-20T07:42:10;14.00;;;6.80;;
75246;SDS011;63844;50.042;19.224;2023-12-20T07:43:47;12.90;;;7.00;;
75246;SDS011;63844;50.042;19.224;2023-12-20T07:45:23;13.20;;;7.40;;
75246;SDS011;63844;50.042;19.224;2023-12-20T07:47:00;12.20;;;6.00;;
75246;SDS011;63844;50.042;19.224;2023-12-20T07:48:37;12.60;;;6.00;;
75246;SDS011;63844;50.042;19.224;2023-12-20T07:50:14;9.50;;;4.90;;
75246;SDS011;63844;50.042;19.224;2023-12-20T07:51:51;12.90;;;6.30;;
75246;SDS011;63844;50.042;19.224;2023-12-20T07:53:27;11.90;;;5.90;;
75246;SDS011;63844;50.042;19.224;2023-12-20T07:55:04;11.00;;;6.10;;
75246;SDS011;63844;50.042;19.224;2023-12-20T07:56:40;11.00;;;6.10;;
75246;SDS011;63844;50.042;19.224;2023-12-20T07:58:17;12.20;;;7.10;;
75246;SDS011;63844;50.042;19.224;2023-12-20T07:59:53;11.00;;;5.70;;
75246;SDS011;63844;50.042;19.224;2023-12-20T08:01:30;12.90;;;6.60;;
75246;SDS011;63844;50.042;19.224;2023-12-20T08:03:06;13.60;;;7.70;;
75246;SDS011;63844;50.042;19.224;2023-12-20T08:04:43;11.20;;;6.60;;
75246;SDS011;63844;50.042;19.224;2023-12-20T08:06:19;11.20;;;5.70;;
75246;SDS011;63844;50.042;19.224;2023-12-20T08:07:56;11.30;;;6.20;;
75246;SDS011;63844;50.042;19.224;2023-12-20T08:09:32;12.80;;;6.80;;
75246;SDS011;63844;50.042;19.224;2023-12-20T08:11:10;12.80;;;7.00;;
75246;SDS011;63844;50.042;19.224;2023-12-20T08:12:46;14.50;;;8.20;;
75246;SDS011;63844;50.042;19.224;2023-12-20T08:14:23;13.10;;;6.60;;
75246;SDS011;63844;50.042;19.224;2023-12-20T08:15:59;15.50;;;9.30;;
75246;SDS011;63844;50.042;19.224;2023-12-20T08:17:35;15.50;;;8.80;;
75246;SDS011;63844;50.042;19.224;2023-12-20T08:19:12;11.20;;;5.60;;
75246;SDS011;63844;50.042;19.224;2023-12-20T08:20:49;11.30;;;6.00;;
75246;SDS011;63844;50.042;19.224;2023-12-20T08:22:29;10.90;;;6.80;;
75246;SDS011;63844;50.042;19.224;2023-12-20T08:24:05;11.90;;;6.50;;
75246;SDS011;63844;50.042;19.224;2023-12-20T08:25:42;32.60;;;15.70;;
75246;SDS011;63844;50.042;19.224;2023-12-20T08:27:19;17.40;;;8.40;;
75246;SDS011;63844;50.042;19.224;2023-12-20T08:28:55;17.40;;;8.70;;
75246;SDS011;63844;50.042;19.224;2023-12-20T08:30:31;26.90;;;13.40;;
75246;SDS011;63844;50.042;19.224;2023-12-20T08:32:08;19.20;;;10.90;;
75246;SDS011;63844;50.042;19.224;2023-12-20T08:33:46;22.20;;;11.60;;
75246;SDS011;63844;50.042;19.224;2023-12-20T08:35:23;16.70;;;7.70;;
75246;SDS011;63844;50.042;19.224;2023-12-20T08:37:00;19.20;;;10.20;;
75246;SDS011;63844;50.042;19.224;2023-12-20T08:38:36;18.00;;;9.90;;
75246;SDS011;63844;50.042;19.224;2023-12-20T08:40:13;13.20;;;7.30;;
75246;SDS011;63844;50.042;19.224;2023-12-20T08:41:49;16.30;;;8.90;;
75246;SDS011;63844;50.042;19.224;2023-12-20T08:43:26;15.10;;;7.70;;
75246;SDS011;63844;50.042;19.224;2023-12-20T08:45:02;13.90;;;7.80;;
75246;SDS011;63844;50.042;19.224;2023-12-20T08:46:40;14.00;;;8.10;;
75246;SDS011;63844;50.042;19.224;2023-12-20T08:48:16;13.30;;;7.10;;
75246;SDS011;63844;50.042;19.224;2023-12-20T08:49:53;14.40;;;8.50;;
75246;SDS011;63844;50.042;19.224;2023-12-20T08:51:32;15.00;;;8.50;;
75246;SDS011;63844;50.042;19.224;2023-12-20T08:53:09;15.70;;;8.50;;
75246;SDS011;63844;50.042;19.224;2023-12-20T08:54:46;15.00;;;8.50;;
75246;SDS011;63844;50.042;19.224;2023-12-20T08:56:22;14.20;;;7.70;;
75246;SDS011;63844;50.042;19.224;2023-12-20T08:57:59;14.50;;;8.30;;
75246;SDS011;63844;50.042;19.224;2023-12-20T08:59:35;13.10;;;6.20;;
75246;SDS011;63844;50.042;19.224;2023-12-20T09:01:12;13.90;;;7.20;;
75246;SDS011;63844;50.042;19.224;2023-12-20T09:02:49;14.10;;;7.60;;
75246;SDS011;63844;50.042;19.224;2023-12-20T09:04:26;15.70;;;8.30;;
75246;SDS011;63844;50.042;19.224;2023-12-20T09:06:02;15.70;;;8.40;;
75246;SDS011;63844;50.042;19.224;2023-12-20T09:07:39;13.20;;;6.80;;
75246;SDS011;63844;50.042;19.224;2023-12-20T09:09:16;12.60;;;7.20;;
75246;SDS011;63844;50.042;19.224;2023-12-20T09:10:52;14.70;;;8.30;;
75246;SDS011;63844;50.042;19.224;2023-12-20T09:12:28;13.70;;;7.50;;
75246;SDS011;63844;50.042;19.224;2023-12-20T09:14:05;14.70;;;8.00;;
75246;SDS011;63844;50.042;19.224;2023-12-20T09:15:41;18.30;;;9.00;;
75246;SDS011;63844;50.042;19.224;2023-12-20T09:17:18;24.90;;;11.20;;
75246;SDS011;63844;50.042;19.224;2023-12-20T09:18:55;42.80;;;17.40;;
75246;SDS011;63844;50.042;19.224;2023-12-20T09:20:31;24.40;;;14.00;;
75246;SDS011;63844;50.042;19.224;2023-12-20T09:22:09;18.70;;;9.20;;
75246;SDS011;63844;50.042;19.224;2023-12-20T09:23:45;18.30;;;9.40;;
75246;SDS011;63844;50.042;19.224;2023-12-20T09:25:22;15.30;;;7.40;;
75246;SDS011;63844;50.042;19.224;2023-12-20T09:26:59;16.00;;;6.90;;
75246;SDS011;63844;50.042;19.224;2023-12-20T09:28:35;15.30;;;7.60;;
75246;SDS011;63844;50.042;19.224;2023-12-20T09:30:13;13.60;;;7.40;;
75246;SDS011;63844;50.042;19.224;2023-12-20T09:31:49;13.20;;;7.60;;